HKEL

Eldoret International Airport

Eldoret, Kenya
TAF HKEL 251100Z 2512/2612 09010KT 9999 FEW022CB SCT023 TEMPO 2512/2518 VRB05KT -TS FEW018CB BKN090 BECMG 2520/2523 13005KT CAVOK TEMPO 2600/2606 9999 FEW020CB SCT021 BECMG 2608/2611 10010KT FEW022CB SCT023
Issued Valid From Valid To
Sep-25 @ 11:00 UTC
(4 hours ago)
Sep-25 @ 12:00 UTC
(3 hours ago)
Sep-26 @ 12:00 UTC
(in 21 hours)
Sep-25 @ 12:00 to Sep-25 @ 20:00
TAF HKEL 251100Z 2512/2612 09010KT 9999 FEW022CB SCT023
Wind Visibility Clouds
90° at 10 knots 10,000+ meters
  • Few at 2,200' AGL
  • Scattered at 2,300' AGL
Temporary Sep-25 @ 12:00 to Sep-25 @ 18:00
TEMPO 2512/2518 VRB05KT -TS FEW018CB BKN090
Wind Clouds Conditions
Variable at 5 knots
  • Few at 1,800' AGL
  • Broken at 9,000' AGL
  • Light Thunderstorm
Becoming Sep-25 @ 20:00 to Sep-26 @ 08:00
BECMG 2520/2523 13005KT CAVOK
Wind Visibility Clouds Conditions
130° at 5 knots 10,000+ meters
  • No significant clouds
Temporary Sep-26 @ 00:00 to Sep-26 @ 06:00
TEMPO 2600/2606 9999 FEW020CB SCT021
Visibility Clouds
10,000+ meters
  • Few at 2,000' AGL
  • Scattered at 2,100' AGL
Becoming Sep-26 @ 08:00 to Sep-26 @ 12:00
BECMG 2608/2611 10010KT FEW022CB SCT023
Wind Visibility Clouds Conditions
100° at 10 knots 10,000+ meters
  • Few at 2,200' AGL
  • Scattered at 2,300' AGL
TAF HKEL 251100Z 2512/2612 09010KT 9999 FEW022CB SCT023 TEMPO 2512/2518 VRB05KT -TS FEW018CB BKN090 BECMG 2520/2523 13005KT CAVOK TEMPO 2600/2606 9999 FEW020CB SCT021 BECMG 2608/2611 10010KT FEW022CB SCT023
Issued Sep-25 @ 11:00 UTC
(4 hours ago)
Valid From Sep-25 @ 12:00 UTC
(3 hours ago)
Valid To Sep-26 @ 12:00 UTC
(in 21 hours)
Sep-25 @ 12:00 - Sep-25 @ 20:00
Wind Visibility
90° at 10 knots 10,000+ meters
Clouds
  • Few at 2,200' AGL
  • Scattered at 2,300' AGL
Temporary Sep-25 @ 12:00 - Sep-25 @ 18:00
Wind
Variable at 5 knots
Clouds
  • Few at 1,800' AGL
  • Broken at 9,000' AGL
Conditions
  • Light Thunderstorm
Becoming Sep-25 @ 20:00 - Sep-26 @ 08:00
Wind Visibility
130° at 5 knots 10,000+ meters
Clouds
  • No significant clouds
Conditions
Temporary Sep-26 @ 00:00 - Sep-26 @ 06:00
Clouds
  • Few at 2,000' AGL
  • Scattered at 2,100' AGL
Becoming Sep-26 @ 08:00 - Sep-26 @ 12:00
Wind Visibility
100° at 10 knots 10,000+ meters
Clouds
  • Few at 2,200' AGL
  • Scattered at 2,300' AGL
Conditions